createdAt,value
2022-10-26T00:01:43.860Z,14.23
2022-10-26T00:04:13.277Z,14.17
2022-10-26T00:06:42.870Z,14.08
2022-10-26T00:09:12.585Z,14.23
2022-10-26T00:11:42.504Z,14.21
2022-10-26T00:14:11.845Z,14.28
2022-10-26T00:16:42.972Z,14.00
2022-10-26T00:19:12.448Z,13.86
2022-10-26T00:21:42.196Z,13.82
2022-10-26T00:24:13.086Z,13.78
2022-10-26T00:26:42.683Z,13.86
2022-10-26T00:29:13.750Z,13.99
2022-10-26T00:31:44.827Z,14.02
2022-10-26T00:34:14.244Z,13.94
2022-10-26T00:36:43.997Z,14.03
2022-10-26T00:39:15.173Z,13.98
2022-10-26T00:41:44.845Z,13.93
2022-10-26T00:44:50.860Z,14.13
2022-10-26T00:47:35.879Z,14.22
2022-10-26T00:50:09.883Z,14.14
2022-10-26T00:52:40.323Z,14.28
2022-10-26T00:55:10.852Z,14.24
2022-10-26T00:57:41.478Z,14.20
2022-10-26T01:00:11.662Z,14.36
2022-10-26T01:02:43.279Z,14.37
2022-10-26T01:05:15.052Z,14.51
2022-10-26T01:07:47.271Z,14.55
2022-10-26T01:10:17.197Z,14.59
2022-10-26T01:12:47.288Z,14.67
2022-10-26T01:15:17.375Z,14.55
2022-10-26T01:18:03.023Z,14.67
2022-10-26T01:21:18.388Z,14.70
2022-10-26T01:24:12.680Z,14.59
2022-10-26T01:26:55.641Z,14.69
2022-10-26T01:29:51.228Z,14.67
2022-10-26T01:32:28.621Z,14.82
2022-10-26T01:35:07.649Z,14.82
2022-10-26T01:37:40.553Z,14.81
2022-10-26T01:40:17.919Z,14.80
2022-10-26T01:42:50.654Z,14.78
2022-10-26T01:45:21.222Z,14.64
2022-10-26T01:47:53.823Z,14.75
2022-10-26T01:50:24.840Z,14.79
2022-10-26T01:52:55.323Z,14.80
2022-10-26T01:55:48.426Z,14.82
2022-10-26T01:58:38.661Z,14.84
2022-10-26T02:01:20.991Z,14.57
2022-10-26T02:04:00.591Z,14.53
2022-10-26T02:06:38.534Z,14.51
2022-10-26T02:09:19.988Z,14.62
2022-10-26T02:11:53.073Z,14.57
2022-10-26T02:14:31.118Z,14.57
2022-10-26T02:17:08.119Z,14.47
2022-10-26T02:19:44.148Z,14.26
2022-10-26T02:22:19.041Z,14.35
2022-10-26T02:24:50.807Z,14.20
2022-10-26T02:27:24.215Z,14.02
2022-10-26T02:29:55.900Z,14.23
2022-10-26T02:33:50.498Z,14.16
2022-10-26T02:36:27.377Z,13.89
2022-10-26T02:38:59.187Z,13.97
2022-10-26T02:41:30.848Z,14.09
2022-10-26T02:44:05.770Z,14.01
2022-10-26T02:46:35.861Z,14.14
2022-10-26T02:49:05.877Z,14.11
2022-10-26T02:51:41.668Z,14.11
2022-10-26T02:54:19.536Z,13.98
2022-10-26T02:56:55.314Z,14.06
2022-10-26T02:59:27.798Z,13.99
2022-10-26T03:01:58.932Z,14.15
2022-10-26T03:04:32.538Z,13.91
2022-10-26T03:07:03.536Z,14.08
2022-10-26T03:09:33.332Z,14.04
2022-10-26T03:12:02.700Z,13.93
2022-10-26T03:14:32.711Z,14.12
2022-10-26T03:17:02.027Z,14.08
2022-10-26T03:19:31.710Z,14.08
2022-10-26T03:22:02.647Z,13.99
2022-10-26T03:24:32.169Z,14.02
2022-10-26T03:27:02.474Z,14.15
2022-10-26T03:29:32.374Z,14.10
2022-10-26T03:32:01.844Z,14.23
2022-10-26T03:34:31.471Z,14.13
2022-10-26T03:37:02.926Z,14.20
2022-10-26T03:39:32.743Z,14.22
2022-10-26T03:42:02.168Z,14.06
2022-10-26T03:44:31.731Z,13.97
2022-10-26T03:47:01.076Z,13.85
2022-10-26T03:49:30.696Z,13.90
2022-10-26T03:52:00.143Z,13.96
2022-10-26T03:54:31.306Z,13.95
2022-10-26T03:57:00.710Z,14.05
2022-10-26T03:59:30.207Z,13.96
2022-10-26T04:01:59.623Z,13.88
2022-10-26T04:04:29.609Z,13.93
2022-10-26T04:06:59.092Z,13.86
2022-10-26T04:09:30.311Z,14.03
2022-10-26T04:11:59.726Z,14.14
2022-10-26T04:14:29.398Z,14.03
2022-10-26T04:16:58.721Z,14.26
2022-10-26T04:19:28.255Z,14.38
2022-10-26T04:21:57.677Z,14.23
2022-10-26T04:24:27.258Z,14.25
2022-10-26T04:26:58.075Z,14.43
2022-10-26T04:29:27.788Z,14.21
2022-10-26T04:31:57.203Z,14.31
2022-10-26T04:34:26.816Z,14.25
2022-10-26T04:36:57.189Z,14.18
2022-10-26T04:39:26.998Z,14.21
2022-10-26T04:41:57.830Z,14.32
2022-10-26T04:44:27.482Z,14.21
2022-10-26T04:46:56.967Z,14.41
2022-10-26T04:49:26.515Z,14.44
2022-10-26T04:51:55.895Z,14.31
2022-10-26T04:54:25.566Z,14.39
2022-10-26T04:56:56.297Z,14.63
2022-10-26T04:59:26.018Z,14.53
2022-10-26T05:01:55.595Z,14.46
2022-10-26T05:04:25.219Z,14.23
2022-10-26T05:06:54.853Z,14.62
2022-10-26T05:09:24.550Z,14.50
2022-10-26T05:11:53.977Z,14.62
2022-10-26T05:14:25.003Z,14.87
2022-10-26T05:16:56.010Z,14.85
2022-10-26T05:19:25.627Z,14.76
2022-10-26T05:21:55.020Z,14.67
2022-10-26T05:24:24.577Z,14.60
2022-10-26T05:26:53.931Z,14.65
2022-10-26T05:29:25.183Z,14.70
2022-10-26T05:31:54.539Z,14.49
2022-10-26T05:34:24.454Z,14.59
2022-10-26T05:36:55.671Z,14.64
2022-10-26T05:39:25.302Z,14.56
2022-10-26T05:41:54.759Z,14.51
2022-10-26T05:44:25.895Z,14.76
2022-10-26T05:46:56.273Z,14.51
2022-10-26T05:49:26.274Z,14.52
2022-10-26T05:51:55.827Z,14.46
2022-10-26T05:54:25.573Z,14.52
2022-10-26T05:56:55.425Z,14.47
2022-10-26T05:59:27.428Z,14.51
2022-10-26T06:02:07.540Z,14.46
2022-10-26T06:04:40.463Z,14.59
2022-10-26T06:07:14.977Z,14.51
2022-10-26T06:09:45.615Z,14.36
2022-10-26T06:12:19.349Z,14.42
2022-10-26T06:14:51.735Z,14.44
2022-10-26T06:17:35.357Z,14.45
2022-10-26T06:20:22.549Z,14.45
2022-10-26T06:23:07.319Z,14.23
2022-10-26T06:25:45.867Z,14.21
2022-10-26T06:28:27.088Z,14.16
2022-10-26T06:30:59.362Z,14.40
2022-10-26T06:33:30.825Z,14.36
2022-10-26T06:36:13.503Z,14.53
2022-10-26T06:38:45.563Z,14.47
2022-10-26T06:41:19.079Z,14.52
2022-10-26T06:43:49.733Z,14.66
2022-10-26T06:46:31.668Z,14.63
2022-10-26T06:49:10.155Z,14.78
2022-10-26T06:51:44.774Z,14.83
2022-10-26T06:54:19.347Z,15.03
2022-10-26T06:56:49.815Z,15.00
2022-10-26T06:59:31.237Z,15.27
2022-10-26T07:02:05.599Z,15.16
2022-10-26T07:04:36.185Z,15.23
2022-10-26T07:07:05.836Z,15.40
2022-10-26T07:09:35.214Z,15.20
2022-10-26T07:12:05.005Z,15.48
2022-10-26T07:14:34.559Z,15.74
2022-10-26T07:17:05.754Z,15.69
2022-10-26T07:19:35.311Z,15.48
2022-10-26T07:22:05.355Z,15.56
2022-10-26T07:24:34.745Z,15.63
2022-10-26T07:27:04.331Z,15.81
2022-10-26T07:29:35.326Z,15.87
2022-10-26T07:32:06.920Z,15.80
2022-10-26T07:34:36.515Z,16.03
2022-10-26T07:37:06.161Z,15.88
2022-10-26T07:39:35.985Z,16.25
2022-10-26T07:42:06.266Z,16.15
2022-10-26T07:44:35.766Z,15.95
2022-10-26T07:47:06.901Z,16.19
2022-10-26T07:49:36.348Z,16.15
2022-10-26T07:52:06.100Z,16.20
2022-10-26T07:54:35.427Z,16.33
2022-10-26T07:59:39.819Z,16.45
2022-10-26T08:02:12.158Z,16.81
2022-10-26T08:04:41.686Z,16.89
2022-10-26T08:07:11.390Z,16.77
2022-10-26T08:09:40.780Z,16.48
2022-10-26T08:12:10.768Z,16.79
2022-10-26T08:14:40.361Z,16.71
2022-10-26T08:17:11.371Z,17.04
2022-10-26T08:19:40.797Z,17.11
2022-10-26T08:22:10.470Z,17.10
2022-10-26T08:24:39.809Z,17.06
2022-10-26T08:27:09.434Z,16.54
2022-10-26T08:29:38.833Z,17.36
2022-10-26T08:32:10.174Z,17.51
2022-10-26T08:34:39.563Z,17.31
2022-10-26T08:37:09.469Z,17.29
2022-10-26T08:39:38.838Z,18.13
2022-10-26T08:42:15.259Z,17.84
2022-10-26T08:44:48.038Z,18.36
2022-10-26T08:47:23.360Z,18.88
2022-10-26T08:49:59.461Z,18.07
2022-10-26T08:52:40.067Z,18.13
2022-10-26T08:55:17.946Z,18.10
2022-10-26T08:57:49.525Z,18.24
2022-10-26T09:00:22.687Z,17.41
2022-10-26T09:02:54.271Z,17.96
2022-10-26T09:05:34.682Z,18.11
2022-10-26T09:08:13.757Z,18.59
2022-10-26T09:10:52.400Z,17.57
2022-10-26T09:13:36.092Z,17.31
2022-10-26T09:16:16.173Z,17.35
2022-10-26T09:18:57.702Z,17.68
2022-10-26T09:21:38.975Z,17.98
2022-10-26T09:24:15.391Z,17.62
2022-10-26T09:29:43.069Z,17.72
2022-10-26T09:32:18.460Z,17.76
2022-10-26T09:34:53.767Z,18.52
2022-10-26T09:37:27.057Z,19.16
2022-10-26T09:40:08.792Z,18.85
2022-10-26T09:42:45.443Z,18.57
2022-10-26T09:45:20.680Z,18.33
2022-10-26T09:47:53.301Z,19.71
2022-10-26T09:50:30.440Z,20.11
2022-10-26T09:52:59.825Z,19.58
2022-10-26T09:55:30.642Z,20.00
2022-10-26T09:58:03.434Z,20.81
2022-10-26T10:03:21.848Z,21.41
2022-10-26T10:05:53.221Z,21.30
2022-10-26T10:08:25.334Z,21.91
2022-10-26T10:10:58.247Z,21.58
2022-10-26T10:13:30.772Z,20.56
2022-10-26T10:16:09.478Z,19.49
2022-10-26T10:18:40.124Z,18.93
2022-10-26T10:21:12.382Z,19.93
2022-10-26T10:23:52.293Z,22.44
2022-10-26T10:26:22.260Z,22.98
2022-10-26T10:28:59.951Z,25.79
2022-10-26T10:31:31.818Z,25.42
2022-10-26T10:34:01.822Z,27.25
2022-10-26T10:36:32.962Z,25.61
2022-10-26T10:39:03.300Z,26.34
2022-10-26T10:41:36.687Z,28.46
2022-10-26T10:44:10.143Z,25.74
2022-10-26T10:46:39.985Z,25.09
2022-10-26T10:49:20.151Z,26.30
2022-10-26T10:51:51.729Z,28.26
2022-10-26T10:54:28.959Z,23.95
2022-10-26T10:57:09.100Z,22.94
2022-10-26T11:00:02.848Z,25.71
2022-10-26T11:02:59.271Z,25.41
2022-10-26T11:05:44.579Z,28.35
2022-10-26T11:08:21.932Z,24.08
2022-10-26T11:10:56.086Z,23.58
2022-10-26T11:13:30.522Z,24.95
2022-10-26T11:16:04.383Z,24.97
2022-10-26T11:18:38.405Z,23.12
2022-10-26T11:21:16.413Z,22.61
2022-10-26T11:23:50.941Z,21.64
2022-10-26T11:26:28.806Z,20.75
2022-10-26T11:29:03.625Z,19.33
2022-10-26T11:31:39.034Z,20.64
2022-10-26T11:34:20.859Z,20.44
2022-10-26T11:36:58.607Z,20.31
2022-10-26T11:39:38.142Z,19.61
2022-10-26T11:42:19.699Z,19.93
2022-10-26T11:44:54.651Z,19.21
2022-10-26T11:47:35.012Z,19.45
2022-10-26T11:50:16.268Z,19.32
2022-10-26T11:52:51.412Z,19.36
2022-10-26T11:55:24.293Z,19.17
2022-10-26T11:57:55.634Z,20.58
2022-10-26T12:00:25.631Z,20.60
2022-10-26T12:02:58.946Z,19.02
2022-10-26T12:05:37.387Z,18.77
2022-10-26T12:08:12.935Z,18.77
2022-10-26T12:10:50.540Z,21.41
2022-10-26T12:13:28.667Z,21.50
2022-10-26T12:16:04.521Z,21.46
2022-10-26T12:18:59.738Z,20.80
2022-10-26T12:21:31.782Z,19.60
2022-10-26T12:24:02.631Z,19.65
2022-10-26T12:26:53.872Z,20.50
2022-10-26T12:29:46.122Z,19.87
2022-10-26T12:32:49.963Z,19.12
2022-10-26T12:35:40.494Z,19.36
2022-10-26T12:38:49.767Z,21.60
2022-10-26T12:41:29.621Z,26.97
2022-10-26T12:44:33.785Z,31.51
2022-10-26T12:47:03.767Z,30.98
2022-10-26T12:50:03.147Z,28.68
2022-10-26T12:52:43.740Z,29.80
2022-10-26T12:55:46.534Z,28.38
2022-10-26T12:58:39.864Z,28.15
2022-10-26T13:01:52.316Z,25.47
2022-10-26T13:04:59.656Z,25.76
2022-10-26T13:07:35.424Z,24.05
2022-10-26T13:10:08.287Z,27.00
2022-10-26T13:12:49.817Z,30.52
2022-10-26T13:15:25.891Z,31.71
2022-10-26T13:18:03.904Z,31.48
2022-10-26T13:20:35.912Z,27.79
2022-10-26T13:23:17.080Z,24.72
2022-10-26T13:26:04.809Z,23.72
2022-10-26T13:28:44.795Z,22.31
2022-10-26T13:31:42.671Z,21.97
2022-10-26T13:34:18.685Z,21.59
2022-10-26T13:36:52.441Z,20.64
2022-10-26T13:39:25.769Z,20.52
2022-10-26T13:41:58.558Z,20.17
2022-10-26T13:44:34.459Z,19.85
2022-10-26T13:47:09.265Z,19.63
2022-10-26T13:49:42.641Z,19.80
2022-10-26T13:52:16.900Z,19.92
2022-10-26T13:54:52.720Z,19.41
2022-10-26T13:57:25.209Z,19.55
2022-10-26T13:59:57.799Z,19.55
2022-10-26T14:02:30.812Z,19.50
2022-10-26T14:05:06.303Z,19.55
2022-10-26T14:07:38.359Z,19.39
2022-10-26T14:10:08.583Z,19.14
2022-10-26T14:12:39.652Z,19.14
2022-10-26T14:15:11.606Z,18.87
2022-10-26T14:17:41.397Z,18.89
2022-10-26T14:20:21.736Z,18.72
2022-10-26T14:22:52.181Z,18.73
2022-10-26T14:25:35.817Z,18.78
2022-10-26T14:28:24.182Z,18.74
2022-10-26T14:30:54.251Z,18.82
2022-10-26T14:33:29.455Z,18.79
2022-10-26T14:36:00.231Z,18.76
2022-10-26T14:38:34.166Z,18.48
2022-10-26T14:41:04.110Z,18.32
2022-10-26T14:43:33.782Z,18.58
2022-10-26T14:46:03.522Z,18.53
2022-10-26T14:48:36.190Z,18.29
2022-10-26T14:51:12.064Z,18.35
2022-10-26T14:53:42.695Z,18.07
2022-10-26T14:56:41.165Z,18.16
2022-10-26T14:59:21.584Z,18.21
2022-10-26T15:01:56.549Z,18.14
2022-10-26T15:04:32.195Z,18.11
2022-10-26T15:07:17.874Z,18.09
2022-10-26T15:09:48.648Z,17.77
2022-10-26T15:12:34.431Z,17.71
2022-10-26T15:15:23.602Z,17.58
2022-10-26T15:17:55.619Z,17.52
2022-10-26T15:20:27.283Z,17.61
2022-10-26T15:23:00.432Z,17.56
2022-10-26T15:25:31.918Z,17.49
2022-10-26T15:28:11.503Z,17.34
2022-10-26T15:30:40.925Z,17.35
2022-10-26T15:33:22.468Z,17.27
2022-10-26T15:35:51.975Z,17.00
2022-10-26T15:38:23.103Z,17.11
2022-10-26T15:40:52.545Z,16.99
2022-10-26T15:43:22.330Z,16.78
2022-10-26T15:45:52.356Z,16.57
2022-10-26T15:48:27.283Z,16.50
2022-10-26T15:50:57.078Z,16.21
2022-10-26T15:53:29.148Z,16.12
2022-10-26T15:56:00.194Z,15.86
2022-10-26T15:58:32.540Z,15.77
2022-10-26T16:01:02.124Z,15.43
2022-10-26T16:03:31.827Z,15.33
2022-10-26T16:06:03.125Z,15.16
2022-10-26T16:08:34.162Z,14.99
2022-10-26T16:11:03.576Z,15.04
2022-10-26T16:13:33.270Z,15.16
2022-10-26T16:16:03.626Z,15.14
2022-10-26T16:18:33.147Z,15.12
2022-10-26T16:21:02.616Z,15.10
2022-10-26T16:23:33.896Z,15.25
2022-10-26T16:26:05.241Z,15.20
2022-10-26T16:28:35.291Z,15.37
2022-10-26T16:31:06.860Z,15.40
2022-10-26T16:33:36.679Z,15.53
2022-10-26T16:36:07.447Z,15.57
2022-10-26T16:38:38.726Z,15.61
2022-10-26T16:41:09.764Z,15.71
2022-10-26T16:43:40.779Z,15.76
2022-10-26T16:46:12.300Z,15.79
2022-10-26T16:48:43.785Z,15.85
2022-10-26T16:51:15.536Z,15.93
2022-10-26T16:53:49.093Z,15.95
2022-10-26T16:56:20.475Z,15.93
2022-10-26T16:58:50.315Z,15.92
2022-10-26T17:01:22.403Z,15.90
2022-10-26T17:03:53.375Z,15.86
2022-10-26T17:06:23.077Z,15.77
2022-10-26T17:08:53.963Z,15.68
2022-10-26T17:11:23.629Z,15.70
2022-10-26T17:13:56.329Z,15.46
2022-10-26T17:16:27.093Z,15.29
2022-10-26T17:18:56.858Z,15.22
2022-10-26T17:21:32.522Z,15.14
2022-10-26T17:24:04.467Z,14.82
2022-10-26T17:26:34.273Z,14.70
2022-10-26T17:29:04.263Z,14.61
2022-10-26T17:31:33.858Z,14.46
2022-10-26T17:34:03.455Z,14.33
2022-10-26T17:36:32.944Z,14.20
2022-10-26T17:39:04.418Z,14.00
2022-10-26T17:41:33.942Z,13.81
2022-10-26T17:44:03.668Z,13.71
2022-10-26T17:46:34.099Z,13.63
2022-10-26T17:49:04.122Z,13.52
2022-10-26T17:51:33.513Z,13.41
2022-10-26T17:54:04.854Z,13.23
2022-10-26T17:56:35.745Z,13.18
2022-10-26T17:59:10.546Z,13.09
2022-10-26T18:01:40.253Z,13.01
2022-10-26T18:04:09.960Z,12.96
2022-10-26T18:06:39.524Z,12.94
2022-10-26T18:09:10.543Z,12.83
2022-10-26T18:11:40.204Z,12.68
2022-10-26T18:14:09.936Z,12.46
2022-10-26T18:16:39.519Z,12.44
2022-10-26T18:19:09.252Z,12.31
2022-10-26T18:21:39.273Z,12.35
2022-10-26T18:24:11.530Z,12.32
2022-10-26T18:26:41.122Z,12.34
2022-10-26T18:29:14.052Z,12.26
2022-10-26T18:31:45.154Z,12.21
2022-10-26T18:34:15.027Z,12.17
2022-10-26T18:36:44.500Z,12.25
2022-10-26T18:39:15.585Z,12.04
2022-10-26T18:41:46.144Z,11.84
2022-10-26T18:44:19.095Z,11.90
2022-10-26T18:46:51.974Z,11.82
2022-10-26T18:49:21.758Z,11.77
2022-10-26T18:51:51.304Z,11.96
2022-10-26T18:54:22.446Z,11.80
2022-10-26T18:56:51.989Z,11.98
2022-10-26T18:59:21.589Z,12.17
2022-10-26T19:01:51.833Z,12.32
2022-10-26T19:04:21.928Z,12.43
2022-10-26T19:06:51.303Z,12.15
2022-10-26T19:09:22.224Z,12.25
2022-10-26T19:11:52.214Z,12.22
2022-10-26T19:14:24.731Z,12.24
2022-10-26T19:16:54.602Z,12.31
2022-10-26T19:19:25.416Z,12.18
2022-10-26T19:21:54.989Z,12.36
2022-10-26T19:24:26.425Z,12.09
2022-10-26T19:26:56.689Z,12.08
2022-10-26T19:29:26.432Z,12.20
2022-10-26T19:31:56.360Z,12.25
2022-10-26T19:34:26.892Z,12.19
2022-10-26T19:36:56.328Z,12.16
2022-10-26T19:39:29.392Z,12.05
2022-10-26T19:41:58.849Z,11.88
2022-10-26T19:44:28.752Z,11.91
2022-10-26T19:46:58.299Z,11.76
2022-10-26T19:49:27.957Z,11.80
2022-10-26T19:51:58.074Z,11.89
2022-10-26T19:54:29.113Z,11.99
2022-10-26T19:56:58.530Z,12.05
2022-10-26T19:59:28.251Z,12.06
2022-10-26T20:01:58.136Z,11.91
2022-10-26T20:04:28.164Z,11.59
2022-10-26T20:06:57.583Z,11.61
2022-10-26T20:09:29.619Z,11.46
2022-10-26T20:11:59.133Z,11.48
2022-10-26T20:14:28.860Z,11.58
2022-10-26T20:16:58.195Z,11.68
2022-10-26T20:19:27.899Z,11.73
2022-10-26T20:21:57.227Z,11.63
2022-10-26T20:24:28.308Z,11.67
2022-10-26T20:26:58.051Z,11.54
2022-10-26T20:29:27.707Z,11.63
2022-10-26T20:31:58.446Z,11.58
2022-10-26T20:37:03.052Z,11.51
2022-10-26T20:39:34.696Z,11.42
2022-10-26T20:42:04.748Z,11.34
2022-10-26T20:44:40.656Z,11.25
2022-10-26T20:47:10.720Z,11.22
2022-10-26T20:49:40.944Z,11.02
2022-10-26T20:52:21.037Z,11.10
2022-10-26T20:54:57.380Z,11.11
2022-10-26T20:57:31.688Z,11.06
2022-10-26T21:00:07.540Z,11.03
2022-10-26T21:02:36.858Z,10.89
2022-10-26T21:05:07.372Z,10.88
2022-10-26T21:07:36.738Z,10.80
2022-10-26T21:10:08.481Z,10.86
2022-10-26T21:12:38.450Z,10.97
2022-10-26T21:15:09.210Z,10.93
2022-10-26T21:17:38.588Z,11.00
2022-10-26T21:20:09.056Z,11.04
2022-10-26T21:22:38.402Z,10.99
2022-10-26T21:25:10.493Z,10.96
2022-10-26T21:27:40.302Z,10.94
2022-10-26T21:30:11.458Z,11.06
2022-10-26T21:32:41.015Z,11.17
2022-10-26T21:35:10.853Z,11.17
2022-10-26T21:37:40.304Z,11.18
2022-10-26T21:40:12.825Z,11.26
2022-10-26T21:42:42.443Z,11.07
2022-10-26T21:45:12.149Z,10.85
2022-10-26T21:47:41.594Z,10.76
2022-10-26T21:50:11.272Z,10.71
2022-10-26T21:52:40.821Z,10.36
2022-10-26T21:55:12.608Z,10.58
2022-10-26T21:57:42.234Z,10.48
2022-10-26T22:00:12.667Z,10.52
2022-10-26T22:02:45.171Z,10.55
2022-10-26T22:05:14.812Z,10.54
2022-10-26T22:07:47.557Z,10.66
2022-10-26T22:10:19.443Z,10.68
2022-10-26T22:12:49.007Z,10.77
2022-10-26T22:15:18.834Z,10.92
2022-10-26T22:17:48.272Z,10.98
2022-10-26T22:20:18.258Z,10.97
2022-10-26T22:22:47.722Z,10.88
2022-10-26T22:25:19.053Z,10.88
2022-10-26T22:27:49.814Z,10.64
2022-10-26T22:30:19.639Z,10.48
2022-10-26T22:32:49.423Z,10.39
2022-10-26T22:35:34.805Z,10.43
2022-10-26T22:38:04.423Z,10.38
2022-10-26T22:40:35.521Z,10.27
2022-10-26T22:43:05.093Z,10.38
2022-10-26T22:45:34.877Z,10.37
2022-10-26T22:48:04.299Z,10.49
2022-10-26T22:50:33.955Z,10.50
2022-10-26T22:53:03.447Z,10.51
2022-10-26T22:55:34.542Z,10.50
2022-10-26T22:58:03.848Z,10.47
2022-10-26T23:00:33.438Z,10.38
2022-10-26T23:03:02.864Z,10.55
2022-10-26T23:05:32.550Z,10.57
2022-10-26T23:08:01.971Z,10.68
2022-10-26T23:10:31.557Z,10.53
2022-10-26T23:15:32.956Z,10.42
2022-10-26T23:18:02.373Z,10.47
2022-10-26T23:20:34.455Z,10.40
2022-10-26T23:23:04.323Z,10.58
2022-10-26T23:25:34.440Z,10.66
2022-10-26T23:28:05.370Z,10.70
2022-10-26T23:30:34.976Z,10.73
2022-10-26T23:33:04.434Z,10.81
2022-10-26T23:35:34.090Z,10.90
2022-10-26T23:38:03.708Z,10.96
2022-10-26T23:40:33.393Z,11.05
2022-10-26T23:43:04.259Z,11.07
2022-10-26T23:45:33.850Z,11.20
2022-10-26T23:48:03.311Z,11.16
2022-10-26T23:50:32.960Z,11.21
2022-10-26T23:53:02.383Z,11.32
2022-10-26T23:55:32.085Z,11.47
2022-10-26T23:58:01.572Z,11.48
